createdAt,value
2019-04-11T13:50:51.759Z,58.80
2019-04-11T13:51:51.732Z,57.10
2019-04-11T13:52:51.711Z,53.20
2019-04-11T13:53:51.712Z,59.80
2019-04-11T13:54:51.725Z,57.00
2019-04-11T13:55:51.744Z,60.90
2019-04-11T13:56:51.758Z,51.60
2019-04-11T13:57:51.736Z,53.00
2019-04-11T13:58:51.724Z,56.60
2019-04-11T13:59:51.730Z,56.30
2019-04-11T14:00:51.763Z,51.40
2019-04-11T14:01:51.753Z,54.10
2019-04-11T14:02:51.728Z,51.60
2019-04-11T14:03:51.747Z,57.90
2019-04-11T14:04:54.220Z,48.70
2019-04-11T14:05:51.749Z,56.00
2019-04-11T14:06:51.754Z,53.20
2019-04-11T14:07:51.805Z,52.30
2019-04-11T14:08:51.735Z,51.30
2019-04-11T14:09:51.735Z,48.80
2019-04-11T14:10:51.748Z,51.30
2019-04-11T14:11:51.739Z,51.40
2019-04-11T14:12:51.751Z,47.90
2019-04-11T14:13:54.132Z,48.60
2019-04-11T14:14:51.982Z,50.30
2019-04-11T14:15:51.752Z,55.00
2019-04-11T14:16:51.755Z,50.50
2019-04-11T14:17:51.780Z,48.30
2019-04-11T14:18:51.749Z,47.30
2019-04-11T14:19:51.760Z,50.80
2019-04-11T14:20:51.787Z,48.90
2019-04-11T14:21:51.776Z,50.10
2019-04-11T14:22:51.769Z,47.70
2019-04-11T14:23:51.822Z,50.20
2019-04-11T14:24:51.796Z,50.90
2019-04-11T14:25:51.804Z,48.20
2019-04-11T14:26:51.843Z,51.40
2019-04-11T14:27:51.834Z,46.30
2019-04-11T14:28:51.876Z,49.80
2019-04-11T14:29:51.909Z,47.60
2019-04-11T14:30:52.494Z,46.50
2019-04-11T14:31:53.843Z,50.80
2019-04-11T14:32:53.910Z,50.50
2019-04-11T14:33:55.601Z,54.30
2019-04-11T14:34:51.932Z,52.60
2019-04-11T14:35:51.945Z,53.20
2019-04-11T14:36:51.940Z,50.40
2019-04-11T14:37:51.923Z,47.90
2019-04-11T14:38:52.297Z,48.80
2019-04-11T14:39:51.942Z,49.40
2019-04-11T14:41:01.190Z,50.70
2019-04-11T14:41:51.907Z,49.30
2019-04-11T14:42:51.906Z,52.20
2019-04-11T14:43:51.975Z,48.70
2019-04-11T14:44:51.932Z,49.50
2019-04-11T14:45:51.932Z,50.20
2019-04-11T14:46:51.955Z,49.10
2019-04-11T14:47:51.906Z,47.60
2019-04-11T14:48:51.909Z,48.70
2019-04-11T14:49:51.998Z,47.70
2019-04-11T14:50:51.922Z,48.50
2019-04-11T14:51:51.972Z,48.20
2019-04-11T14:52:51.975Z,46.10
2019-04-11T14:53:51.946Z,46.20
2019-04-11T14:54:51.940Z,45.70
2019-04-11T14:55:51.930Z,45.30
2019-04-11T14:56:52.402Z,45.60
2019-04-11T14:57:53.851Z,49.70
2019-04-11T14:58:53.870Z,47.20
2019-04-11T14:59:54.152Z,45.40
2019-04-11T15:00:53.927Z,51.30
2019-04-11T15:01:51.973Z,48.40
2019-04-11T15:02:51.942Z,39.20
2019-04-11T15:03:51.957Z,44.20
2019-04-11T15:04:51.955Z,46.50
2019-04-11T15:05:51.973Z,47.80
2019-04-11T15:06:51.991Z,45.50
2019-04-11T15:07:51.973Z,47.30
2019-04-11T15:08:51.972Z,47.00
2019-04-11T15:09:51.945Z,47.90
2019-04-11T15:10:51.966Z,45.80
2019-04-11T15:11:51.983Z,47.20
2019-04-11T15:12:51.977Z,43.40
2019-04-11T15:13:51.957Z,45.00
2019-04-11T15:14:52.036Z,47.80
2019-04-11T15:15:51.951Z,45.50
2019-04-11T15:16:51.950Z,48.80
2019-04-11T15:17:55.592Z,44.30
2019-04-11T15:18:51.967Z,42.80
2019-04-11T15:19:51.968Z,46.40
2019-04-11T15:20:55.174Z,54.70
2019-04-11T15:21:51.974Z,68.40
2019-04-11T15:22:51.988Z,69.80
2019-04-11T15:23:51.960Z,55.00
2019-04-11T15:24:51.974Z,48.00
2019-04-11T15:25:51.979Z,49.80
2019-04-11T15:26:52.004Z,48.10
2019-04-11T15:27:51.986Z,45.10
2019-04-11T15:28:51.997Z,44.20
2019-04-11T15:29:51.991Z,45.40
2019-04-11T15:30:51.955Z,47.50
2019-04-11T15:31:51.969Z,45.30
2019-04-11T15:32:51.974Z,46.00
2019-04-11T15:33:51.955Z,44.40
2019-04-11T15:34:53.076Z,43.60
2019-04-11T15:35:51.937Z,43.60
2019-04-11T15:36:51.970Z,45.60
2019-04-11T15:37:51.975Z,47.50
2019-04-11T15:38:51.988Z,41.60
2019-04-11T15:39:51.967Z,45.00
2019-04-11T15:40:51.971Z,50.70
2019-04-11T15:41:53.781Z,47.80
2019-04-11T15:42:51.979Z,45.60
2019-04-11T15:43:52.216Z,46.80
2019-04-11T15:44:51.999Z,44.50
2019-04-11T15:45:51.973Z,42.50
2019-04-11T15:46:52.001Z,45.90
2019-04-11T15:47:51.975Z,46.60
2019-04-11T15:48:53.795Z,46.80
2019-04-11T15:49:52.025Z,46.60
2019-04-11T15:50:52.003Z,46.10
2019-04-11T15:51:51.984Z,42.40
2019-04-11T15:52:51.999Z,45.70
2019-04-11T15:53:51.971Z,45.90
2019-04-11T15:54:51.977Z,47.20
2019-04-11T15:55:52.005Z,46.30
2019-04-11T15:56:52.032Z,45.50
2019-04-11T15:57:51.981Z,52.60
2019-04-11T15:58:52.039Z,43.90
2019-04-11T15:59:54.171Z,46.00
2019-04-11T16:00:51.978Z,55.90
2019-04-11T16:01:52.024Z,51.30
2019-04-11T16:02:52.015Z,47.50
2019-04-11T16:03:51.996Z,42.60
2019-04-11T16:04:51.992Z,42.60
2019-04-11T16:05:51.995Z,44.30
2019-04-11T16:06:51.990Z,45.40
2019-04-11T16:07:52.031Z,45.80
2019-04-11T16:08:51.978Z,49.70
2019-04-11T16:09:51.997Z,47.10
2019-04-11T16:10:51.986Z,45.60
2019-04-11T16:11:51.994Z,44.90
2019-04-11T16:12:51.999Z,53.70
2019-04-11T16:13:52.044Z,47.90
2019-04-11T16:14:52.008Z,46.80
2019-04-11T16:15:52.010Z,51.50
2019-04-11T16:16:52.004Z,49.90
2019-04-11T16:17:51.990Z,43.00
2019-04-11T16:18:51.985Z,47.90
2019-04-11T16:19:52.035Z,58.40
2019-04-11T16:20:52.012Z,50.80
2019-04-11T16:21:54.682Z,47.30
2019-04-11T16:22:54.964Z,48.40
2019-04-11T16:23:52.019Z,43.00
2019-04-11T16:24:52.010Z,57.00
2019-04-11T16:25:52.017Z,45.30
2019-04-11T16:26:52.020Z,48.20
2019-04-11T16:27:51.989Z,50.90
2019-04-11T16:28:52.027Z,49.90
2019-04-11T16:29:52.020Z,44.20
2019-04-11T16:30:52.010Z,47.00
2019-04-11T16:31:52.022Z,47.70
2019-04-11T16:32:52.021Z,46.70
2019-04-11T16:33:52.021Z,46.50
2019-04-11T16:34:55.783Z,47.90
2019-04-11T16:35:52.027Z,47.80
2019-04-11T16:36:51.981Z,46.00
2019-04-11T16:37:52.027Z,48.10
2019-04-11T16:38:52.046Z,47.00
2019-04-11T16:39:54.856Z,43.50
2019-04-11T16:40:53.454Z,48.60
2019-04-11T16:41:53.897Z,46.10
2019-04-11T16:42:53.792Z,45.80
2019-04-11T16:43:54.615Z,46.50
2019-04-11T16:44:54.851Z,46.10
2019-04-11T16:45:54.588Z,47.90
2019-04-11T16:46:54.866Z,46.30
2019-04-11T16:47:53.745Z,44.10
2019-04-11T16:48:55.648Z,45.10
2019-04-11T16:49:52.387Z,46.20
2019-04-11T16:50:52.041Z,44.40
2019-04-11T16:51:52.020Z,47.10
2019-04-11T16:52:52.052Z,43.90
2019-04-11T16:53:52.034Z,54.70
2019-04-11T16:54:52.031Z,48.10
2019-04-11T16:55:53.868Z,52.60
2019-04-11T16:56:52.047Z,45.60
2019-04-11T16:57:52.036Z,47.20
2019-04-11T16:58:52.035Z,47.40
2019-04-11T16:59:52.018Z,46.30
2019-04-11T17:00:52.657Z,48.90
2019-04-11T17:01:53.834Z,44.80
2019-04-11T17:02:54.745Z,44.90
2019-04-11T17:03:54.772Z,48.60
2019-04-11T17:04:55.646Z,46.30
2019-04-11T17:05:55.743Z,44.30
2019-04-11T17:06:55.410Z,45.70
2019-04-11T17:07:53.870Z,50.10
2019-04-11T17:08:56.082Z,44.70
2019-04-11T17:09:52.027Z,45.20
2019-04-11T17:10:52.038Z,46.30
2019-04-11T17:11:52.029Z,49.10
2019-04-11T17:12:53.856Z,48.30
2019-04-11T17:13:52.057Z,49.90
2019-04-11T17:14:52.062Z,47.10
2019-04-11T17:15:52.041Z,45.50
2019-04-11T17:16:52.046Z,41.60
2019-04-11T17:17:53.631Z,43.30
2019-04-11T17:18:52.048Z,44.30
2019-04-11T17:19:52.071Z,41.40
2019-04-11T17:20:52.059Z,47.30
2019-04-11T17:21:52.064Z,47.20
2019-04-11T17:22:52.049Z,42.10
2019-04-11T17:23:52.062Z,43.40
2019-04-11T17:24:52.045Z,44.00
2019-04-11T17:25:52.969Z,47.00
2019-04-11T17:26:52.785Z,44.80
2019-04-11T17:27:53.277Z,46.50
2019-04-11T17:28:54.331Z,41.70
2019-04-11T17:29:54.648Z,44.40
2019-04-11T17:30:55.050Z,45.00
2019-04-11T17:31:55.625Z,44.70
2019-04-11T17:32:55.366Z,45.70
2019-04-11T17:33:52.076Z,48.00
2019-04-11T17:34:52.079Z,47.10
2019-04-11T17:35:52.049Z,44.30
2019-04-11T17:36:52.075Z,43.20
2019-04-11T17:37:52.075Z,44.90
2019-04-11T17:38:52.088Z,46.30
2019-04-11T17:39:52.041Z,44.00
2019-04-11T17:40:52.099Z,48.80
2019-04-11T17:41:52.067Z,50.40
2019-04-11T17:42:52.100Z,47.60
2019-04-11T17:43:52.101Z,48.90
2019-04-11T17:44:52.101Z,43.70
2019-04-11T17:45:52.061Z,43.50
2019-04-11T17:46:52.068Z,44.00
2019-04-11T17:47:52.048Z,47.70
2019-04-11T17:48:52.081Z,44.20
2019-04-11T17:49:52.079Z,41.00
2019-04-11T17:50:52.080Z,44.30
2019-04-11T17:51:55.970Z,48.60
2019-04-11T17:52:54.385Z,47.60
2019-04-11T17:53:54.808Z,43.90
2019-04-11T17:54:54.165Z,50.40
2019-04-11T17:55:54.075Z,44.10
2019-04-11T17:56:54.581Z,48.70
2019-04-11T17:57:52.071Z,44.30
2019-04-11T17:58:52.088Z,43.70
2019-04-11T17:59:52.074Z,45.30
2019-04-11T18:00:52.079Z,46.00
2019-04-11T18:01:52.098Z,48.10
2019-04-11T18:02:52.726Z,46.90
2019-04-11T18:03:52.058Z,48.40
2019-04-11T18:04:52.201Z,47.60
2019-04-11T18:05:52.075Z,46.20
2019-04-11T18:06:52.093Z,43.10
2019-04-11T18:07:52.147Z,43.50
2019-04-11T18:08:52.206Z,46.40
2019-04-11T18:09:55.791Z,44.00
2019-04-11T18:10:55.730Z,48.80
2019-04-11T18:11:55.802Z,45.70
2019-04-11T18:12:55.770Z,46.90
2019-04-11T18:13:52.134Z,48.30
2019-04-11T18:14:52.123Z,49.90
2019-04-11T18:15:52.059Z,49.10
2019-04-11T18:16:52.077Z,45.70
2019-04-11T18:17:52.084Z,47.70
2019-04-11T18:18:52.114Z,44.90
2019-04-11T18:19:52.109Z,45.30
2019-04-11T18:20:52.097Z,48.10
2019-04-11T18:21:52.085Z,47.50
2019-04-11T18:22:52.099Z,45.10
2019-04-11T18:23:52.109Z,47.70
2019-04-11T18:24:52.122Z,49.90
2019-04-11T18:25:52.203Z,49.50
2019-04-11T18:26:52.508Z,46.60
2019-04-11T18:27:52.468Z,47.60
2019-04-11T18:28:52.603Z,51.90
2019-04-11T18:29:52.991Z,49.90
2019-04-11T18:30:54.081Z,46.00
2019-04-11T18:31:52.105Z,47.80
2019-04-11T18:32:52.091Z,46.00
2019-04-11T18:33:52.088Z,50.00
2019-04-11T18:34:52.104Z,45.40
2019-04-11T18:35:52.114Z,50.40
2019-04-11T18:36:52.106Z,49.90
2019-04-11T18:37:52.125Z,48.60
2019-04-11T18:38:52.098Z,50.60
2019-04-11T18:39:52.105Z,47.00
2019-04-11T18:40:52.139Z,46.60
2019-04-11T18:41:52.092Z,47.40
2019-04-11T18:42:52.127Z,48.80
2019-04-11T18:43:52.121Z,49.10
2019-04-11T18:44:52.116Z,48.90
2019-04-11T18:45:52.138Z,48.40
2019-04-11T18:46:52.132Z,47.40
2019-04-11T18:47:52.123Z,49.20
2019-04-11T18:48:54.396Z,53.60
2019-04-11T18:49:53.221Z,49.10
2019-04-11T18:50:53.199Z,48.60
2019-04-11T18:51:53.081Z,45.20
2019-04-11T18:52:52.110Z,48.40
2019-04-11T18:53:52.104Z,49.50
2019-04-11T18:54:52.110Z,44.70
2019-04-11T18:55:52.106Z,44.70
2019-04-11T18:56:52.091Z,48.50
2019-04-11T18:57:52.346Z,55.50
2019-04-11T18:58:52.115Z,45.40
2019-04-11T18:59:52.120Z,49.70
2019-04-11T19:00:52.143Z,48.60
2019-04-11T19:01:52.140Z,46.30
2019-04-11T19:02:52.112Z,47.60
2019-04-11T19:03:52.104Z,48.50
2019-04-11T19:04:52.149Z,52.60
2019-04-11T19:05:52.116Z,45.90
2019-04-11T19:06:52.145Z,48.20
2019-04-11T19:07:52.124Z,50.80
2019-04-11T19:08:52.133Z,46.20
2019-04-11T19:09:52.131Z,48.90
2019-04-11T19:10:52.164Z,49.50
2019-04-11T19:11:52.167Z,47.30
2019-04-11T19:12:52.208Z,45.40
2019-04-11T19:13:52.205Z,46.60
2019-04-11T19:14:52.220Z,45.70
2019-04-11T19:15:52.219Z,44.90
2019-04-11T19:16:52.238Z,48.40
2019-04-11T19:18:05.691Z,45.60
2019-04-11T19:18:52.258Z,46.50
2019-04-11T19:19:52.259Z,49.50
2019-04-11T19:20:52.240Z,52.50
2019-04-11T19:21:52.257Z,50.70
2019-04-11T19:22:52.271Z,51.10
2019-04-11T19:23:52.267Z,51.60
2019-04-11T19:24:52.265Z,47.70
2019-04-11T19:25:52.266Z,49.40
2019-04-11T19:26:52.263Z,51.70
2019-04-11T19:27:54.217Z,46.30
2019-04-11T19:28:54.860Z,50.30
2019-04-11T19:29:55.618Z,49.70
2019-04-11T19:30:53.995Z,52.00
2019-04-11T19:31:52.250Z,48.90
2019-04-11T19:32:52.267Z,47.90
2019-04-11T19:33:52.450Z,46.50
2019-04-11T19:34:52.255Z,47.40
2019-04-11T19:35:52.276Z,48.00
2019-04-11T19:36:52.281Z,48.90
2019-04-11T19:37:52.313Z,48.90
2019-04-11T19:38:52.287Z,47.90
2019-04-11T19:39:52.278Z,46.20
2019-04-11T19:40:52.281Z,44.20
2019-04-11T19:41:52.257Z,45.20
2019-04-11T19:42:52.306Z,51.20
2019-04-11T19:43:52.314Z,49.70
2019-04-11T19:44:52.253Z,47.30
2019-04-11T19:45:52.287Z,45.00
2019-04-11T19:46:52.282Z,47.70
2019-04-11T19:47:52.903Z,47.90
2019-04-11T19:48:55.406Z,48.20
2019-04-11T19:49:52.297Z,43.10
2019-04-11T19:50:52.283Z,49.50
2019-04-11T19:51:52.293Z,46.30
2019-04-11T19:52:52.294Z,46.60
2019-04-11T19:53:52.287Z,41.20
2019-04-11T19:54:52.255Z,44.40
2019-04-11T19:55:52.487Z,43.90
2019-04-11T19:56:52.267Z,47.70
2019-04-11T19:57:52.288Z,47.10
2019-04-11T19:58:52.310Z,48.50
2019-04-11T19:59:52.314Z,45.90
2019-04-11T20:00:53.915Z,43.40
2019-04-11T20:01:53.268Z,46.60
2019-04-11T20:02:54.102Z,45.60
2019-04-11T20:03:54.144Z,44.90
2019-04-11T20:04:52.300Z,42.50
2019-04-11T20:05:52.298Z,38.90
2019-04-11T20:06:52.281Z,44.30
2019-04-11T20:07:52.276Z,40.10
2019-04-11T20:08:52.303Z,44.20
2019-04-11T20:09:52.261Z,43.90
2019-04-11T20:10:52.328Z,51.20
2019-04-11T20:11:52.316Z,47.10
2019-04-11T20:12:52.276Z,45.40
2019-04-11T20:13:52.338Z,47.80
2019-04-11T20:14:52.313Z,47.40
2019-04-11T20:15:52.370Z,44.10
2019-04-11T20:16:52.389Z,44.10
2019-04-11T20:17:52.362Z,45.20
2019-04-11T20:18:56.668Z,48.50
2019-04-11T20:20:00.833Z,46.10
2019-04-11T20:20:52.441Z,47.20
2019-04-11T20:21:52.407Z,45.30
2019-04-11T20:22:59.007Z,47.00
2019-04-11T20:23:52.389Z,45.90
2019-04-11T20:24:52.418Z,45.20
2019-04-11T20:25:52.378Z,42.70
2019-04-11T20:26:52.388Z,44.70
2019-04-11T20:27:52.425Z,45.40
2019-04-11T20:28:52.397Z,44.50
2019-04-11T20:29:55.301Z,43.50
2019-04-11T20:30:52.361Z,44.60
2019-04-11T20:31:52.408Z,42.10
2019-04-11T20:32:52.413Z,41.40
2019-04-11T20:33:52.404Z,46.10
2019-04-11T20:34:52.401Z,44.30
2019-04-11T20:35:52.388Z,45.40
2019-04-11T20:36:52.393Z,43.20
2019-04-11T20:37:54.228Z,45.10
2019-04-11T20:38:52.436Z,46.20
2019-04-11T20:39:52.390Z,45.10
2019-04-11T20:40:53.230Z,42.60
2019-04-11T20:41:53.527Z,43.50
2019-04-11T20:42:54.410Z,45.20
2019-04-11T20:43:55.887Z,45.80
2019-04-11T20:44:52.393Z,44.80
2019-04-11T20:45:53.479Z,47.40
2019-04-11T20:46:52.408Z,43.00
2019-04-11T20:47:52.414Z,44.70
2019-04-11T20:48:54.578Z,45.20
2019-04-11T20:49:52.431Z,46.30
2019-04-11T20:50:52.408Z,44.30
2019-04-11T20:51:52.497Z,44.90
2019-04-11T20:52:52.429Z,45.20
2019-04-11T20:53:52.407Z,45.60
2019-04-11T20:54:52.441Z,42.80
2019-04-11T20:55:52.439Z,42.80
2019-04-11T20:56:52.416Z,45.20
2019-04-11T20:57:52.420Z,46.50
2019-04-11T20:58:52.471Z,46.40
2019-04-11T20:59:52.459Z,46.00
2019-04-11T21:00:55.658Z,46.90
2019-04-11T21:01:53.698Z,46.70
2019-04-11T21:02:52.421Z,44.80
2019-04-11T21:03:52.422Z,46.90
2019-04-11T21:04:52.465Z,44.10
2019-04-11T21:05:52.443Z,46.00
2019-04-11T21:06:52.459Z,45.20
2019-04-11T21:07:52.452Z,39.80
2019-04-11T21:08:52.431Z,45.50
2019-04-11T21:09:52.400Z,45.80
2019-04-11T21:10:52.479Z,43.50
2019-04-11T21:11:52.452Z,43.60
2019-04-11T21:12:52.449Z,43.00
2019-04-11T21:13:52.468Z,44.60
2019-04-11T21:14:52.433Z,48.90
2019-04-11T21:15:52.435Z,44.10
2019-04-11T21:16:52.430Z,45.00
2019-04-11T21:17:53.623Z,45.40
2019-04-11T21:18:54.497Z,45.30
2019-04-11T21:19:53.274Z,50.00
2019-04-11T21:20:55.047Z,43.20
2019-04-11T21:21:53.330Z,45.10
2019-04-11T21:22:54.012Z,49.00
2019-04-11T21:23:52.461Z,44.80
2019-04-11T21:24:52.449Z,45.10
2019-04-11T21:25:52.623Z,46.30
2019-04-11T21:26:52.448Z,43.70
2019-04-11T21:27:52.439Z,43.10
2019-04-11T21:28:52.439Z,40.70
2019-04-11T21:29:52.456Z,47.90
2019-04-11T21:30:52.460Z,47.10
2019-04-11T21:31:52.441Z,44.00
2019-04-11T21:32:52.431Z,43.90
2019-04-11T21:33:52.455Z,45.50
2019-04-11T21:34:52.435Z,41.10
2019-04-11T21:35:52.464Z,46.00
2019-04-11T21:36:52.449Z,44.00
2019-04-11T21:37:52.488Z,45.30
2019-04-11T21:38:52.439Z,39.60
2019-04-11T21:39:52.450Z,42.10
2019-04-11T21:40:52.459Z,45.00
2019-04-11T21:41:52.466Z,43.10
2019-04-11T21:42:52.433Z,45.10
2019-04-11T21:43:52.463Z,42.70
2019-04-11T21:44:52.465Z,42.00
2019-04-11T21:45:52.464Z,42.90
2019-04-11T21:46:52.441Z,44.70
2019-04-11T21:47:52.424Z,44.60
2019-04-11T21:48:52.464Z,43.50
2019-04-11T21:49:52.481Z,42.00
2019-04-11T21:50:52.448Z,43.80
2019-04-11T21:51:52.461Z,43.90
2019-04-11T21:52:52.448Z,45.50
2019-04-11T21:53:52.463Z,43.60
2019-04-11T21:54:52.470Z,42.90
2019-04-11T21:55:52.479Z,44.40
2019-04-11T21:56:52.482Z,40.60
2019-04-11T21:57:52.467Z,43.90
2019-04-11T21:58:52.498Z,40.70
2019-04-11T21:59:52.479Z,45.00
2019-04-11T22:00:54.337Z,43.30
2019-04-11T22:01:54.110Z,39.80
2019-04-11T22:02:54.375Z,42.70
2019-04-11T22:03:55.772Z,39.60
2019-04-11T22:04:52.496Z,42.10
2019-04-11T22:05:52.485Z,40.80
2019-04-11T22:06:52.481Z,42.70
2019-04-11T22:07:52.467Z,41.90
2019-04-11T22:08:52.481Z,41.20
2019-04-11T22:09:52.456Z,43.10
2019-04-11T22:10:52.506Z,42.40
2019-04-11T22:11:52.468Z,45.10
2019-04-11T22:12:52.480Z,46.00
2019-04-11T22:13:52.465Z,41.30
2019-04-11T22:14:52.470Z,46.50
2019-04-11T22:15:52.495Z,42.90
2019-04-11T22:16:54.928Z,39.80
2019-04-11T22:17:52.495Z,44.70
2019-04-11T22:18:52.493Z,41.10
2019-04-11T22:19:52.469Z,42.20
2019-04-11T22:20:52.472Z,44.60
2019-04-11T22:21:52.465Z,41.20
2019-04-11T22:22:52.510Z,42.00
2019-04-11T22:23:52.477Z,43.70
2019-04-11T22:24:52.478Z,44.40
2019-04-11T22:25:52.477Z,42.70
2019-04-11T22:26:52.485Z,44.10
2019-04-11T22:27:53.895Z,40.60
2019-04-11T22:28:54.931Z,43.00
2019-04-11T22:29:54.963Z,41.70
2019-04-11T22:30:54.889Z,44.40
2019-04-11T22:31:55.817Z,44.60
2019-04-11T22:32:52.488Z,45.00
2019-04-11T22:33:52.492Z,42.00
2019-04-11T22:34:52.533Z,46.80
2019-04-11T22:35:52.489Z,46.50
2019-04-11T22:36:52.511Z,42.80
2019-04-11T22:37:52.482Z,43.20
2019-04-11T22:38:52.483Z,47.30
2019-04-11T22:39:52.490Z,44.70
2019-04-11T22:40:52.509Z,45.80
2019-04-11T22:41:52.486Z,42.90
2019-04-11T22:42:52.520Z,44.50
2019-04-11T22:43:52.483Z,47.10
2019-04-11T22:44:52.502Z,42.10
2019-04-11T22:45:52.469Z,48.10
2019-04-11T22:46:52.526Z,42.40
2019-04-11T22:47:52.504Z,44.10
2019-04-11T22:48:52.514Z,44.50
2019-04-11T22:49:52.505Z,46.30
2019-04-11T22:50:52.499Z,43.80
2019-04-11T22:51:52.508Z,43.40
2019-04-11T22:52:52.516Z,43.50
2019-04-11T22:54:00.304Z,41.90
2019-04-11T22:54:52.520Z,42.90
2019-04-11T22:55:52.501Z,43.30
2019-04-11T22:56:52.490Z,41.60
2019-04-11T22:57:52.506Z,44.70
2019-04-11T22:58:52.506Z,45.50
2019-04-11T22:59:52.529Z,43.30
2019-04-11T23:00:52.528Z,43.80
2019-04-11T23:01:52.501Z,42.10
2019-04-11T23:02:52.477Z,45.00
2019-04-11T23:03:52.502Z,44.50
2019-04-11T23:04:52.523Z,40.90
2019-04-11T23:05:52.516Z,43.40
2019-04-11T23:06:52.542Z,42.00
2019-04-11T23:07:52.534Z,43.50
2019-04-11T23:08:52.504Z,40.90
2019-04-11T23:09:52.518Z,41.70
2019-04-11T23:10:52.527Z,41.50
2019-04-11T23:11:52.527Z,39.60
2019-04-11T23:12:52.545Z,43.00
2019-04-11T23:13:52.538Z,41.40
2019-04-11T23:14:52.505Z,44.10
2019-04-11T23:15:52.514Z,41.70
2019-04-11T23:16:52.514Z,42.70
2019-04-11T23:17:52.523Z,39.90
2019-04-11T23:18:52.532Z,44.30
2019-04-11T23:19:52.556Z,42.30
2019-04-11T23:20:52.508Z,42.90
2019-04-11T23:21:52.503Z,42.40
2019-04-11T23:22:52.512Z,41.00
2019-04-11T23:23:52.537Z,40.60
2019-04-11T23:24:52.560Z,42.70
2019-04-11T23:25:52.533Z,42.80
2019-04-11T23:26:52.526Z,41.60
2019-04-11T23:27:52.519Z,43.30
2019-04-11T23:28:52.560Z,44.10
2019-04-11T23:29:52.534Z,43.70
2019-04-11T23:30:52.535Z,40.60
2019-04-11T23:31:52.529Z,44.70
2019-04-11T23:32:52.509Z,44.40
2019-04-11T23:33:52.672Z,40.20
2019-04-11T23:34:53.296Z,43.00
2019-04-11T23:35:52.521Z,41.00
2019-04-11T23:36:52.539Z,42.70
2019-04-11T23:37:52.551Z,43.00
2019-04-11T23:38:52.960Z,39.30
2019-04-11T23:39:52.515Z,41.60
2019-04-11T23:40:52.560Z,39.60
2019-04-11T23:41:52.539Z,40.90
2019-04-11T23:42:52.530Z,40.20
2019-04-11T23:43:52.565Z,42.60
2019-04-11T23:44:52.547Z,42.30
2019-04-11T23:45:52.509Z,41.70
2019-04-11T23:46:52.702Z,43.40
2019-04-11T23:47:54.121Z,41.00
2019-04-11T23:48:55.540Z,41.70
2019-04-11T23:49:55.141Z,45.10
2019-04-11T23:50:54.801Z,41.50
2019-04-11T23:51:55.656Z,41.30
2019-04-11T23:52:57.048Z,39.20
2019-04-11T23:53:52.572Z,42.20
2019-04-11T23:54:52.565Z,40.50
2019-04-11T23:55:52.565Z,43.00
2019-04-11T23:56:52.529Z,41.00
2019-04-11T23:57:52.531Z,41.20
2019-04-11T23:58:52.562Z,44.60
2019-04-11T23:59:52.573Z,43.20
